Time;durP1;ratioP1;P1;durP2;ratioP2;P2;SDS_P1;SDS_P2;PMS_P1;PMS_P2;Temp;Humidity;BMP_temperature;BMP_pressure;BME280_temperature;BME280_humidity;BME280_pressure;Samples;Min_cycle;Max_cycle;Signal;HPM_P1;HPM_P2
2021/11/02 00:00:27;;;;;;;7.87;3.67;;;9.30;99.90;;;;;;5035712;28;20185;-85
2021/11/02 00:02:53;;;;;;;7.97;3.27;;;9.30;99.90;;;;;;5029738;28;20170;-87
2021/11/02 00:05:19;;;;;;;7.53;3.07;;;9.30;99.90;;;;;;5019343;28;20213;-87
2021/11/02 00:07:47;;;;;;;5.87;3.50;;;9.30;99.90;;;;;;5023982;28;20180;-85
2021/11/02 00:10:13;;;;;;;6.90;3.50;;;9.30;99.90;;;;;;5037120;28;20186;-87
2021/11/02 00:12:39;;;;;;;5.30;3.10;;;9.30;99.90;;;;;;5035302;28;20178;-90
2021/11/02 00:15:06;;;;;;;5.43;2.90;;;9.30;99.90;;;;;;5036168;28;20185;-84
2021/11/02 00:17:35;;;;;;;5.50;2.70;;;9.30;99.90;;;;;;5036867;28;20202;-89
2021/11/02 00:20:06;;;;;;;4.33;2.47;;;9.30;99.90;;;;;;5022988;28;20530;-90
2021/11/02 00:22:35;;;;;;;3.90;2.40;;;9.30;99.90;;;;;;5032394;28;20246;-88
2021/11/02 00:25:04;;;;;;;8.10;2.70;;;9.30;99.90;;;;;;5024612;28;20221;-91
2021/11/02 00:27:39;;;;;;;7.07;3.20;;;9.20;99.90;;;;;;5029071;28;20280;-90
2021/11/02 00:30:12;;;;;;;3.93;2.50;;;9.30;99.90;;;;;;5025196;28;20234;-86
2021/11/02 00:32:39;;;;;;;6.40;2.47;;;9.30;99.90;;;;;;5024554;28;20197;-85
2021/11/02 00:35:06;;;;;;;5.83;2.47;;;9.20;99.90;;;;;;5025321;28;20658;-85
2021/11/02 00:37:32;;;;;;;5.80;2.90;;;9.20;99.90;;;;;;5022832;28;20989;-87
2021/11/02 00:40:00;;;;;;;6.77;2.50;;;9.10;99.90;;;;;;5023059;28;20509;-86
2021/11/02 00:42:32;;;;;;;4.80;2.20;;;9.10;99.90;;;;;;5006167;28;20182;-86
2021/11/02 00:45:00;;;;;;;3.50;2.13;;;9.20;99.90;;;;;;5024870;28;20189;-86
2021/11/02 00:47:27;;;;;;;3.63;2.00;;;9.20;99.90;;;;;;5019409;28;20558;-86
2021/11/02 00:49:53;;;;;;;5.83;2.30;;;9.30;99.90;;;;;;5015261;28;20561;-84
2021/11/02 00:52:19;;;;;;;6.77;2.53;;;9.20;99.90;;;;;;5026568;28;20162;-83
2021/11/02 00:54:45;;;;;;;4.90;1.97;;;9.30;99.90;;;;;;5014712;28;20217;-86
2021/11/02 00:57:14;;;;;;;5.27;2.13;;;9.20;99.90;;;;;;5013592;28;20183;-86
2021/11/02 00:59:43;;;;;;;5.93;2.17;;;9.20;99.90;;;;;;5014475;28;20186;-85
2021/11/02 01:02:09;;;;;;;2.77;1.90;;;9.30;99.90;;;;;;5013313;28;20178;-85
2021/11/02 01:04:35;;;;;;;4.17;2.40;;;9.20;99.90;;;;;;5013816;28;20186;-85
2021/11/02 01:07:01;;;;;;;5.07;1.80;;;9.30;99.90;;;;;;5017149;28;20265;-84
2021/11/02 01:09:26;;;;;;;4.83;2.23;;;9.20;99.90;;;;;;5028689;28;20179;-86
2021/11/02 01:11:53;;;;;;;4.97;2.10;;;9.20;99.90;;;;;;5033013;28;20170;-89
2021/11/02 01:14:19;;;;;;;5.57;2.17;;;9.10;99.90;;;;;;5037586;28;20194;-84
2021/11/02 01:17:04;;;;;;;6.33;2.07;;;9.20;99.90;;;;;;5008882;28;20662;-90
2021/11/02 01:22:52;;;;;;;4.60;1.97;;;9.20;99.90;;;;;;5017293;28;20656;-90
2021/11/02 01:25:18;;;;;;;5.27;2.30;;;9.00;99.90;;;;;;5020528;28;20217;-89
2021/11/02 01:27:44;;;;;;;5.33;2.40;;;9.00;99.90;;;;;;5027509;28;20179;-85
2021/11/02 01:30:12;;;;;;;3.70;2.33;;;8.90;99.90;;;;;;5035378;28;20305;-88
2021/11/02 01:32:38;;;;;;;3.77;2.20;;;8.80;99.90;;;;;;5023046;28;20258;-86
2021/11/02 01:35:07;;;;;;;5.73;2.40;;;8.80;99.90;;;;;;5014026;28;20174;-86
2021/11/02 01:37:34;;;;;;;4.63;2.20;;;8.80;99.90;;;;;;5013287;28;20271;-85
2021/11/02 01:40:05;;;;;;;6.40;2.70;;;8.90;99.90;;;;;;5015424;28;20555;-85
2021/11/02 01:42:33;;;;;;;5.77;2.30;;;8.80;99.90;;;;;;5017115;28;20175;-85
2021/11/02 01:44:59;;;;;;;4.13;2.57;;;8.80;99.90;;;;;;5016084;28;20212;-85
2021/11/02 01:47:25;;;;;;;3.50;2.30;;;8.90;99.90;;;;;;5014440;28;20592;-85
2021/11/02 01:49:51;;;;;;;3.53;2.23;;;8.90;99.90;;;;;;5016562;28;20790;-85
2021/11/02 01:52:17;;;;;;;4.83;2.53;;;9.00;99.90;;;;;;5017554;28;20185;-84
2021/11/02 01:54:44;;;;;;;3.77;2.83;;;8.90;99.90;;;;;;5013909;28;20277;-85
2021/11/02 01:57:10;;;;;;;4.73;2.70;;;9.10;99.90;;;;;;5022392;28;20163;-84
2021/11/02 01:59:37;;;;;;;3.60;2.40;;;8.90;99.90;;;;;;5026137;28;20178;-85
2021/11/02 02:02:23;;;;;;;5.10;2.90;;;9.00;99.90;;;;;;5012906;28;20202;-87
2021/11/02 02:05:13;;;;;;;4.10;3.00;;;9.10;99.90;;;;;;5012038;28;20193;-85
2021/11/02 02:08:03;;;;;;;4.17;2.57;;;8.90;99.90;;;;;;5012890;28;20197;-85
2021/11/02 02:11:08;;;;;;;5.10;3.30;;;8.90;99.90;;;;;;5012743;28;20224;-84
2021/11/02 02:13:50;;;;;;;4.73;2.90;;;8.90;99.90;;;;;;5012300;28;20180;-86
2021/11/02 02:16:38;;;;;;;5.60;2.73;;;8.90;99.90;;;;;;5011970;28;20178;-85
2021/11/02 02:19:30;;;;;;;5.47;3.07;;;8.90;99.90;;;;;;5011360;28;20619;-85
2021/11/02 02:22:11;;;;;;;4.67;3.40;;;8.90;99.90;;;;;;5011394;28;20275;-85
2021/11/02 02:24:52;;;;;;;5.13;2.90;;;8.90;99.90;;;;;;5012715;28;20182;-85
2021/11/02 02:27:44;;;;;;;4.93;2.63;;;8.90;99.90;;;;;;5012706;28;20182;-88
2021/11/02 02:30:17;;;;;;;5.70;3.20;;;8.90;99.90;;;;;;5016706;28;20175;-86
2021/11/02 02:32:49;;;;;;;5.60;3.07;;;8.80;99.90;;;;;;5020911;28;20206;-85
2021/11/02 02:35:22;;;;;;;4.47;3.17;;;8.90;99.90;;;;;;5020762;28;20185;-86
2021/11/02 02:37:50;;;;;;;7.03;3.50;;;9.00;99.90;;;;;;5019395;28;20670;-86
2021/11/02 02:40:17;;;;;;;5.87;4.00;;;9.00;99.90;;;;;;5021141;28;20174;-86
2021/11/02 02:42:45;;;;;;;6.67;3.70;;;9.00;99.90;;;;;;5015963;28;20205;-87
2021/11/02 02:45:13;;;;;;;4.87;3.07;;;8.90;99.90;;;;;;5014911;28;20221;-85
2021/11/02 02:47:43;;;;;;;6.67;3.90;;;8.90;99.90;;;;;;5013065;28;20713;-89
2021/11/02 02:50:09;;;;;;;5.33;3.70;;;8.90;99.90;;;;;;5013290;28;20543;-87
2021/11/02 02:52:36;;;;;;;7.70;3.87;;;9.00;99.90;;;;;;5013840;28;20190;-87
2021/11/02 02:55:04;;;;;;;5.50;4.00;;;9.00;99.90;;;;;;5017443;28;20190;-86
2021/11/02 02:57:32;;;;;;;5.37;3.60;;;8.90;99.90;;;;;;5016895;28;20635;-88
2021/11/02 03:00:00;;;;;;;6.80;3.67;;;8.90;99.90;;;;;;5016682;28;20615;-89
2021/11/02 03:02:30;;;;;;;7.80;4.07;;;8.90;99.90;;;;;;5016578;28;20189;-88
2021/11/02 03:04:59;;;;;;;5.93;3.80;;;8.90;99.90;;;;;;5017267;28;20175;-89
2021/11/02 03:07:25;;;;;;;4.70;3.57;;;8.90;99.90;;;;;;5017502;28;20261;-90
2021/11/02 03:09:52;;;;;;;8.03;4.23;;;8.90;99.90;;;;;;5015913;28;20662;-91
2021/11/02 03:12:36;;;;;;;7.03;3.93;;;8.90;99.90;;;;;;5017122;28;20181;-87
2021/11/02 03:57:16;;;;;;;5.63;4.20;;;8.90;99.90;;;;;;5029039;28;20209;-84
2021/11/02 04:24:57;;;;;;;5.13;3.83;;;9.10;99.90;;;;;;5016213;28;20305;-88
2021/11/02 04:33:24;;;;;;;5.13;3.53;;;9.20;99.90;;;;;;5016661;28;20243;-91
2021/11/02 05:55:24;;;;;;;5.40;3.70;;;9.50;99.90;;;;;;5013337;28;20544;-86
2021/11/02 06:00:39;;;;;;;6.07;3.97;;;9.40;99.90;;;;;;5031166;28;20205;-85
2021/11/02 06:28:26;;;;;;;6.73;4.30;;;9.40;99.90;;;;;;5014343;28;20194;-85
2021/11/02 06:31:18;;;;;;;6.40;5.13;;;9.40;99.90;;;;;;5012488;28;20193;-85
2021/11/02 06:59:55;;;;;;;8.63;5.07;;;9.50;99.90;;;;;;5015930;28;20169;-86
2021/11/02 07:20:14;;;;;;;10.07;6.03;;;9.70;99.90;;;;;;5034716;28;20212;-83
2021/11/02 07:26:12;;;;;;;8.47;5.73;;;9.70;99.90;;;;;;5035814;28;20296;-86
2021/11/02 08:47:29;;;;;;;9.87;6.23;;;9.90;99.90;;;;;;5036777;28;20549;-84
2021/11/02 08:49:55;;;;;;;9.50;5.63;;;9.90;99.90;;;;;;5029529;28;20208;-83
2021/11/02 08:52:21;;;;;;;8.07;5.70;;;10.00;99.90;;;;;;5035731;28;20641;-80
2021/11/02 08:54:55;;;;;;;11.27;6.50;;;10.10;99.90;;;;;;5035137;28;20186;-82
2021/11/02 08:57:22;;;;;;;7.77;5.33;;;10.10;99.90;;;;;;5038349;28;20184;-82
2021/11/02 08:59:49;;;;;;;11.53;5.63;;;10.20;99.90;;;;;;5040815;28;20174;-80
2021/11/02 09:02:36;;;;;;;7.50;5.63;;;10.10;99.90;;;;;;5040434;28;20181;-81
2021/11/02 09:05:11;;;;;;;6.60;5.13;;;10.30;99.90;;;;;;5042266;28;20269;-83
2021/11/02 09:07:39;;;;;;;8.57;5.37;;;10.30;99.90;;;;;;5046009;28;20195;-86
2021/11/02 09:10:13;;;;;;;6.50;5.30;;;10.30;99.90;;;;;;5037759;28;20522;-89
2021/11/02 09:12:43;;;;;;;8.00;5.00;;;10.20;99.90;;;;;;5042679;28;20180;-84
2021/11/02 09:15:16;;;;;;;12.30;6.27;;;10.20;99.90;;;;;;5035969;28;20181;-81
2021/11/02 09:17:47;;;;;;;7.00;5.50;;;10.30;99.90;;;;;;5028911;28;20210;-82
2021/11/02 09:20:16;;;;;;;11.97;5.90;;;10.30;99.90;;;;;;5015217;28;20194;-85
2021/11/02 09:22:49;;;;;;;7.17;5.33;;;10.40;99.90;;;;;;5019141;28;20167;-85
2021/11/02 09:25:18;;;;;;;8.97;5.43;;;10.50;99.90;;;;;;5022158;28;20217;-82
2021/11/02 09:27:48;;;;;;;8.07;5.97;;;10.60;99.90;;;;;;5027473;28;20186;-83
2021/11/02 09:30:15;;;;;;;8.00;5.50;;;10.40;99.90;;;;;;5031106;28;20189;-84
2021/11/02 09:32:50;;;;;;;8.03;5.87;;;10.40;99.90;;;;;;5046327;28;20189;-82
2021/11/02 09:35:25;;;;;;;10.80;5.80;;;10.40;99.90;;;;;;5034187;28;20212;-83
2021/11/02 09:38:34;;;;;;;7.07;5.30;;;10.30;99.90;;;;;;5038105;28;20201;-82
2021/11/02 09:41:47;;;;;;;7.47;5.20;;;10.20;99.90;;;;;;5044412;28;20173;-87
2021/11/02 09:44:27;;;;;;;7.57;5.67;;;10.30;99.90;;;;;;5043625;28;20252;-85
2021/11/02 09:47:31;;;;;;;9.97;6.13;;;10.20;99.90;;;;;;5038375;28;20220;-88
2021/11/02 09:50:36;;;;;;;8.83;5.23;;;10.20;99.90;;;;;;5035482;28;20193;-88
2021/11/02 09:53:20;;;;;;;7.23;5.40;;;10.20;99.90;;;;;;5028425;28;20582;-88
2021/11/02 09:56:04;;;;;;;8.10;5.90;;;10.20;99.90;;;;;;5024273;28;20213;-87
2021/11/02 09:58:39;;;;;;;8.57;5.80;;;10.20;99.90;;;;;;5036141;28;20529;-90
2021/11/02 10:01:25;;;;;;;7.27;5.33;;;10.10;99.90;;;;;;5026658;28;20193;-91
2021/11/02 10:04:43;;;;;;;6.63;5.57;;;10.30;99.90;;;;;;5018847;28;20186;-88
2021/11/02 10:07:18;;;;;;;8.03;5.87;;;10.30;99.90;;;;;;5046045;28;20209;-88
2021/11/02 10:10:01;;;;;;;6.50;5.53;;;10.10;99.90;;;;;;5050093;28;20216;-91
2021/11/02 10:12:58;;;;;;;7.97;6.77;;;10.00;99.90;;;;;;5040994;28;20193;-89
2021/11/02 10:16:12;;;;;;;9.50;6.93;;;10.00;99.90;;;;;;5048520;28;20181;-90
2021/11/02 10:19:09;;;;;;;9.23;6.50;;;10.10;99.90;;;;;;5046539;28;20263;-87
2021/11/02 10:21:53;;;;;;;7.73;6.43;;;10.20;99.90;;;;;;5051622;28;20209;-89
2021/11/02 10:25:18;;;;;;;14.00;6.83;;;10.30;99.90;;;;;;5048411;28;20186;-87
2021/11/02 10:28:09;;;;;;;7.60;5.50;;;10.40;99.90;;;;;;4993365;28;20193;-88
2021/11/02 10:31:02;;;;;;;9.20;6.00;;;10.40;99.90;;;;;;5026016;28;20190;-88
2021/11/02 10:33:36;;;;;;;9.00;6.53;;;10.40;99.90;;;;;;5005469;28;20190;-87
2021/11/02 10:36:20;;;;;;;7.27;5.90;;;10.40;99.90;;;;;;5015506;28;20166;-86
2021/11/02 10:39:14;;;;;;;8.27;6.43;;;10.50;99.90;;;;;;5014473;28;20194;-87
2021/11/02 10:41:55;;;;;;;7.40;6.03;;;10.70;99.90;;;;;;5024963;28;20514;-86
2021/11/02 10:44:35;;;;;;;8.67;5.87;;;10.60;99.90;;;;;;5021106;28;20257;-86
2021/11/02 10:47:16;;;;;;;6.73;5.87;;;10.50;99.90;;;;;;5033294;28;20272;-86
2021/11/02 10:50:01;;;;;;;7.50;6.43;;;10.50;99.90;;;;;;5037553;28;20822;-87
2021/11/02 10:52:28;;;;;;;9.97;6.77;;;10.50;99.90;;;;;;5027126;28;20198;-86
2021/11/02 10:55:33;;;;;;;14.63;7.17;;;10.50;99.90;;;;;;5040195;28;20173;-85
2021/11/02 10:58:11;;;;;;;9.70;7.23;;;10.50;99.90;;;;;;5033258;28;20217;-87
2021/11/02 11:00:37;;;;;;;10.17;7.00;;;10.40;99.90;;;;;;5037375;28;20178;-86
2021/11/02 11:03:10;;;;;;;8.73;6.40;;;10.40;99.90;;;;;;5031836;28;20190;-88
2021/11/02 11:06:06;;;;;;;7.97;6.67;;;10.30;99.90;;;;;;5030319;28;20193;-87
2021/11/02 11:08:39;;;;;;;8.97;6.77;;;10.30;99.90;;;;;;5023961;28;20194;-87
2021/11/02 11:11:15;;;;;;;8.27;7.00;;;10.40;99.90;;;;;;5024259;28;20233;-86
2021/11/02 11:13:51;;;;;;;9.73;5.90;;;10.50;99.90;;;;;;5033298;28;20182;-88
2021/11/02 11:16:32;;;;;;;8.23;6.17;;;10.50;99.90;;;;;;5027958;28;20176;-87
2021/11/02 11:19:22;;;;;;;8.20;6.30;;;10.50;99.90;;;;;;5020526;28;20236;-86
2021/11/02 11:21:51;;;;;;;8.23;5.60;;;10.50;99.90;;;;;;5020653;28;20179;-85
2021/11/02 11:24:23;;;;;;;7.17;5.70;;;10.50;99.90;;;;;;5020247;28;20209;-90
2021/11/02 11:26:51;;;;;;;9.03;5.50;;;10.50;99.90;;;;;;5019903;28;20242;-90
2021/11/02 11:29:24;;;;;;;8.27;5.70;;;10.60;99.90;;;;;;5019627;28;20182;-85
2021/11/02 11:31:52;;;;;;;10.10;4.93;;;10.60;99.90;;;;;;5018575;28;20565;-89
2021/11/02 11:34:18;;;;;;;6.07;4.37;;;10.50;99.90;;;;;;5027026;28;20193;-87
2021/11/02 11:36:49;;;;;;;8.27;4.90;;;10.50;99.90;;;;;;5024872;28;20178;-86
2021/11/02 11:39:20;;;;;;;6.23;4.97;;;10.50;99.90;;;;;;5024643;28;20202;-88
2021/11/02 11:41:51;;;;;;;6.90;4.90;;;10.40;99.90;;;;;;5036402;28;20241;-87
2021/11/02 11:44:19;;;;;;;6.00;4.80;;;10.50;99.90;;;;;;5039640;28;20193;-88
2021/11/02 11:46:48;;;;;;;5.33;4.20;;;10.50;99.90;;;;;;5024267;28;20233;-88
2021/11/02 11:49:26;;;;;;;7.17;4.47;;;10.70;99.90;;;;;;5039880;28;20273;-88
2021/11/02 11:51:58;;;;;;;7.73;5.13;;;10.60;99.90;;;;;;5046271;28;20201;-88
2021/11/02 11:54:45;;;;;;;7.57;4.57;;;10.60;99.90;;;;;;5053396;28;20506;-88
2021/11/02 11:57:32;;;;;;;5.17;4.23;;;10.60;99.90;;;;;;5052017;28;20188;-85
2021/11/02 12:00:06;;;;;;;5.73;4.07;;;10.60;99.90;;;;;;5045369;28;20193;-88
2021/11/02 12:02:37;;;;;;;7.13;4.93;;;10.60;99.90;;;;;;5041166;28;20235;-85
2021/11/02 12:05:18;;;;;;;6.40;4.50;;;10.70;99.90;;;;;;5038969;28;20193;-86
2021/11/02 12:07:54;;;;;;;6.30;4.43;;;10.70;99.90;;;;;;5039304;28;20185;-85
2021/11/02 12:10:27;;;;;;;6.20;3.80;;;10.60;99.90;;;;;;5046893;28;20248;-86
2021/11/02 12:13:03;;;;;;;7.77;4.23;;;10.60;99.90;;;;;;5054188;28;20178;-86
2021/11/02 12:16:13;;;;;;;6.33;3.73;;;10.60;99.90;;;;;;5046647;28;20185;-87
2021/11/02 12:18:53;;;;;;;6.30;3.33;;;10.80;99.90;;;;;;5038916;28;20612;-86
2021/11/02 12:21:20;;;;;;;4.80;3.43;;;10.80;99.90;;;;;;5039909;28;20657;-87
2021/11/02 12:23:51;;;;;;;6.27;3.90;;;10.70;99.90;;;;;;5048992;28;20173;-89
2021/11/02 12:26:18;;;;;;;6.37;4.43;;;10.80;99.90;;;;;;5046250;28;20213;-85
2021/11/02 12:28:47;;;;;;;7.57;4.13;;;10.70;99.90;;;;;;5044300;28;20178;-87
2021/11/02 12:31:16;;;;;;;7.43;4.27;;;10.80;99.90;;;;;;5038764;28;20190;-86
2021/11/02 12:33:50;;;;;;;7.70;4.60;;;10.60;99.90;;;;;;5040027;28;20205;-85
2021/11/02 12:36:25;;;;;;;5.50;3.70;;;10.50;99.90;;;;;;5038209;28;20272;-87
2021/11/02 12:39:05;;;;;;;6.00;4.23;;;10.60;99.90;;;;;;5041700;28;20218;-85
2021/11/02 12:41:35;;;;;;;5.87;4.00;;;10.60;99.90;;;;;;5057476;28;20189;-86
2021/11/02 12:44:43;;;;;;;6.17;4.00;;;10.70;99.90;;;;;;5047764;28;20550;-86
2021/11/02 12:47:23;;;;;;;4.83;4.10;;;10.70;99.90;;;;;;5040412;28;20217;-88
2021/11/02 12:49:58;;;;;;;6.60;4.37;;;10.60;99.90;;;;;;5038799;28;20193;-87
2021/11/02 12:52:34;;;;;;;5.73;4.10;;;10.80;99.90;;;;;;5041811;28;20181;-85
2021/11/02 12:55:14;;;;;;;5.70;3.73;;;10.90;99.90;;;;;;5038937;28;20182;-86
2021/11/02 12:57:44;;;;;;;5.63;4.10;;;11.10;99.90;;;;;;5037191;28;20316;-87
2021/11/02 13:00:17;;;;;;;6.17;3.87;;;11.10;99.90;;;;;;5037869;28;20177;-87
2021/11/02 13:02:51;;;;;;;6.77;4.13;;;11.10;99.90;;;;;;5037655;28;20186;-88
2021/11/02 13:05:25;;;;;;;5.83;4.33;;;11.10;99.90;;;;;;5021543;28;20265;-88
2021/11/02 13:08:29;;;;;;;8.40;4.27;;;11.10;99.90;;;;;;5037807;28;20182;-88
2021/11/02 13:11:07;;;;;;;6.87;4.13;;;11.20;99.90;;;;;;4997014;28;20182;-87
2021/11/02 13:13:52;;;;;;;5.43;4.20;;;11.10;99.90;;;;;;5036595;28;20197;-86
2021/11/02 13:16:18;;;;;;;4.67;3.87;;;11.10;99.90;;;;;;5038397;28;20395;-88
2021/11/02 13:18:45;;;;;;;6.03;4.30;;;11.20;99.90;;;;;;5038957;28;20198;-86
2021/11/02 13:21:31;;;;;;;5.57;4.87;;;11.40;99.90;;;;;;5047098;28;20182;-87
2021/11/02 13:24:18;;;;;;;7.83;5.00;;;11.50;99.90;;;;;;5048840;28;20182;-85
2021/11/02 13:26:50;;;;;;;7.10;5.07;;;11.60;99.90;;;;;;5040962;28;20283;-86
2021/11/02 13:29:27;;;;;;;4.80;4.27;;;11.60;99.90;;;;;;5039228;28;20356;-87
2021/11/02 13:32:00;;;;;;;8.17;4.83;;;11.80;99.90;;;;;;5038881;28;20189;-86
2021/11/02 13:34:37;;;;;;;7.73;4.37;;;11.70;99.90;;;;;;5049021;28;20192;-85
2021/11/02 13:37:04;;;;;;;8.53;5.50;;;11.90;99.90;;;;;;5039632;28;20633;-86
2021/11/02 13:39:48;;;;;;;6.03;4.90;;;11.90;99.90;;;;;;5038778;28;20654;-89
2021/11/02 13:42:50;;;;;;;6.53;5.27;;;12.00;99.20;;;;;;5038424;28;20203;-86
2021/11/02 13:45:22;;;;;;;6.40;4.40;;;12.00;99.90;;;;;;5021399;28;20189;-87
2021/11/02 13:47:49;;;;;;;8.83;5.23;;;12.00;99.90;;;;;;5042909;28;20182;-86
2021/11/02 13:50:16;;;;;;;7.80;4.33;;;12.00;99.90;;;;;;5040776;28;20201;-85
2021/11/02 13:52:42;;;;;;;8.97;5.17;;;11.90;99.50;;;;;;5048575;28;20173;-86
2021/11/02 13:55:09;;;;;;;8.00;4.83;;;11.70;99.10;;;;;;5055982;28;20170;-86
2021/11/02 13:57:37;;;;;;;7.80;5.13;;;11.70;99.10;;;;;;5040322;28;20186;-85
2021/11/02 14:00:05;;;;;;;9.07;5.50;;;11.70;99.90;;;;;;5049903;28;20280;-85
2021/11/02 14:02:38;;;;;;;10.40;5.73;;;11.70;99.70;;;;;;5045388;28;20205;-85
2021/11/02 14:05:05;;;;;;;8.87;4.90;;;11.70;99.50;;;;;;5025340;28;20272;-89
2021/11/02 14:07:36;;;;;;;6.67;4.90;;;11.70;99.80;;;;;;5042099;28;20348;-86
2021/11/02 14:10:08;;;;;;;8.03;4.90;;;11.80;99.10;;;;;;5024614;28;20614;-86
2021/11/02 14:12:52;;;;;;;6.93;5.10;;;11.80;99.20;;;;;;5025895;28;20193;-87
2021/11/02 14:15:27;;;;;;;6.40;4.57;;;11.90;98.30;;;;;;5039358;28;20177;-88
2021/11/02 14:18:10;;;;;;;5.47;4.40;;;11.80;98.50;;;;;;5036614;28;20215;-87
2021/11/02 14:20:52;;;;;;;6.60;4.70;;;11.90;98.10;;;;;;5035421;28;20185;-90
2021/11/02 14:23:29;;;;;;;8.37;5.07;;;11.90;98.10;;;;;;5042624;28;20181;-87
2021/11/02 14:26:26;;;;;;;6.70;4.60;;;12.00;97.60;;;;;;5037516;28;20219;-88
2021/11/02 14:28:59;;;;;;;8.10;5.40;;;12.00;97.60;;;;;;5034068;28;20269;-88
2021/11/02 14:31:37;;;;;;;7.47;4.93;;;12.20;95.60;;;;;;5035812;28;20638;-88
2021/11/02 14:34:25;;;;;;;7.70;4.53;;;12.10;95.20;;;;;;5037064;28;20178;-86
2021/11/02 14:37:16;;;;;;;7.27;4.87;;;12.00;94.40;;;;;;5036958;28;20272;-87
2021/11/02 14:40:06;;;;;;;8.50;4.27;;;12.00;95.10;;;;;;5036857;28;20190;-86
2021/11/02 14:42:41;;;;;;;7.13;4.37;;;12.00;96.00;;;;;;5043695;28;20181;-87
2021/11/02 14:45:09;;;;;;;5.20;3.77;;;12.00;95.00;;;;;;5046139;28;20191;-88
2021/11/02 14:47:35;;;;;;;7.63;3.50;;;12.20;92.20;;;;;;5040213;28;20191;-87
2021/11/02 14:50:24;;;;;;;5.60;3.23;;;12.10;91.30;;;;;;5052261;28;20307;-88
2021/11/02 14:52:50;;;;;;;7.27;3.80;;;12.00;90.60;;;;;;5050262;28;20193;-85
2021/11/02 14:55:50;;;;;;;5.97;3.73;;;12.40;91.00;;;;;;5048208;28;20196;-86
2021/11/02 14:58:44;;;;;;;4.33;2.80;;;13.10;79.90;;;;;;5050051;28;20225;-86
2021/11/02 15:01:22;;;;;;;3.83;2.50;;;13.90;62.70;;;;;;5051410;28;20195;-87
2021/11/02 15:04:01;;;;;;;3.30;1.80;;;14.10;50.50;;;;;;5039670;28;20216;-87
2021/11/02 15:06:30;;;;;;;3.63;2.17;;;14.30;3.70;;;;;;5040812;28;20240;-87
2021/11/02 15:08:58;;;;;;;5.10;2.33;;;14.70;1.00;;;;;;5040031;28;20186;-88
2021/11/02 15:11:25;;;;;;;4.80;2.30;;;15.20;1.00;;;;;;5024201;28;20193;-87
2021/11/02 15:14:04;;;;;;;6.70;3.17;;;15.40;1.00;;;;;;5055189;28;20167;-87
2021/11/02 15:16:40;;;;;;;2.93;1.70;;;15.70;1.00;;;;;;5027692;28;20185;-87
2021/11/02 15:19:07;;;;;;;3.10;1.70;;;15.60;1.00;;;;;;5041540;28;20349;-87
2021/11/02 15:21:39;;;;;;;3.37;2.47;;;15.60;1.00;;;;;;5024722;28;20192;-86
2021/11/02 15:24:27;;;;;;;5.63;2.20;;;15.90;1.00;;;;;;5042199;28;20231;-87
2021/11/02 15:27:04;;;;;;;4.67;2.60;;;16.00;1.00;;;;;;5039417;28;20215;-87
2021/11/02 15:29:37;;;;;;;4.87;2.60;;;15.30;1.00;;;;;;5041944;28;20192;-88
2021/11/02 15:32:05;;;;;;;3.67;2.00;;;14.40;1.00;;;;;;5047573;28;20204;-86
2021/11/02 15:34:51;;;;;;;5.10;2.10;;;13.70;1.00;;;;;;5057606;28;20226;-87
2021/11/02 15:37:31;;;;;;;5.27;1.80;;;13.20;1.00;;;;;;5044568;28;20184;-88
2021/11/02 15:40:01;;;;;;;3.73;2.37;;;12.70;4.60;;;;;;5041075;28;20204;-87
2021/11/02 15:42:41;;;;;;;4.67;2.70;;;12.60;9.20;;;;;;5043698;28;20185;-87
2021/11/02 15:45:18;;;;;;;5.00;2.60;;;12.50;6.40;;;;;;5054153;28;20190;-86
2021/11/02 15:47:48;;;;;;;5.03;2.10;;;12.60;9.40;;;;;;5053413;28;20174;-85
2021/11/02 15:50:28;;;;;;;4.03;2.20;;;13.00;1.00;;;;;;5043968;28;20192;-86
2021/11/02 15:53:11;;;;;;;7.10;2.80;;;13.20;1.00;;;;;;5054521;28;20157;-89
2021/11/02 15:55:40;;;;;;;4.70;2.90;;;13.70;1.00;;;;;;5044704;28;20214;-88
2021/11/02 15:58:12;;;;;;;5.83;2.50;;;13.90;1.00;;;;;;5039371;28;20607;-86
2021/11/02 16:00:41;;;;;;;6.03;2.73;;;13.90;1.00;;;;;;5038797;28;20186;-87
2021/11/02 16:03:18;;;;;;;4.53;2.50;;;13.90;1.00;;;;;;5038457;28;20236;-87
2021/11/02 16:05:45;;;;;;;6.23;3.03;;;13.70;1.00;;;;;;5039588;28;20209;-87
2021/11/02 16:08:15;;;;;;;6.53;4.33;;;13.50;1.00;;;;;;5040155;28;20186;-89
2021/11/02 16:10:43;;;;;;;10.63;4.20;;;13.20;1.00;;;;;;5040298;28;20182;-87
2021/11/02 16:13:13;;;;;;;7.13;4.27;;;12.90;1.00;;;;;;5047301;28;20253;-85
2021/11/02 16:15:40;;;;;;;8.03;3.07;;;12.70;1.00;;;;;;5043470;28;20264;-88
2021/11/02 16:18:13;;;;;;;6.13;3.50;;;12.50;1.00;;;;;;5047222;28;20221;-86
2021/11/02 16:20:44;;;;;;;8.07;3.30;;;12.30;8.40;;;;;;5051635;28;20182;-89
2021/11/02 16:23:22;;;;;;;8.60;3.40;;;12.20;14.10;;;;;;5040772;28;20183;-88
2021/11/02 16:25:57;;;;;;;5.13;3.13;;;12.20;13.40;;;;;;5041318;28;20221;-87
2021/11/02 16:28:32;;;;;;;6.30;2.80;;;12.10;17.00;;;;;;5052419;28;20192;-85
2021/11/02 16:31:09;;;;;;;5.30;2.93;;;11.80;22.10;;;;;;5053457;28;20175;-87
2021/11/02 16:33:37;;;;;;;9.53;3.70;;;11.90;26.60;;;;;;5040781;28;20181;-86
2021/11/02 16:36:20;;;;;;;6.57;2.97;;;11.80;27.80;;;;;;5042064;28;20194;-88
2021/11/02 16:38:46;;;;;;;7.20;4.60;;;11.80;29.30;;;;;;5038726;28;20186;-87
2021/11/02 16:41:25;;;;;;;9.03;6.70;;;11.70;32.20;;;;;;5037360;28;20720;-89
2021/11/02 16:44:04;;;;;;;7.93;3.80;;;11.40;40.00;;;;;;5037958;28;20177;-87
2021/11/02 16:46:51;;;;;;;5.77;3.67;;;11.40;41.00;;;;;;5037964;28;20248;-87
2021/11/02 16:49:20;;;;;;;8.03;3.83;;;11.50;40.10;;;;;;5039920;28;20182;-88
2021/11/02 16:51:56;;;;;;;6.10;3.57;;;11.50;41.90;;;;;;5040781;28;20260;-91
2021/11/02 16:54:25;;;;;;;6.00;3.43;;;11.50;42.40;;;;;;5042252;28;20223;-88
2021/11/02 16:57:19;;;;;;;5.23;3.53;;;11.40;43.90;;;;;;5052489;28;20229;-89
2021/11/02 16:59:57;;;;;;;6.10;3.67;;;11.40;45.70;;;;;;5048937;28;20682;-89
2021/11/02 17:02:38;;;;;;;7.23;3.40;;;11.40;44.80;;;;;;5043154;28;20182;-87
2021/11/02 17:05:36;;;;;;;6.37;3.67;;;11.40;45.70;;;;;;5043975;28;20239;-87
2021/11/02 17:08:19;;;;;;;4.83;3.30;;;11.50;40.10;;;;;;5047615;28;20193;-88
2021/11/02 17:10:55;;;;;;;8.90;3.90;;;11.50;40.30;;;;;;5040755;28;20239;-89
2021/11/02 17:13:35;;;;;;;7.50;4.03;;;11.40;41.30;;;;;;5041918;28;20189;-89
2021/11/02 17:16:23;;;;;;;6.00;4.07;;;11.30;44.60;;;;;;5041330;28;20185;-89
2021/11/02 17:19:08;;;;;;;6.43;4.27;;;11.30;47.10;;;;;;5043167;28;20252;-89
2021/11/02 17:21:38;;;;;;;8.63;4.47;;;11.40;45.90;;;;;;5042043;28;20668;-90
2021/11/02 17:24:09;;;;;;;8.03;5.20;;;11.40;46.70;;;;;;5040403;28;20268;-88
2021/11/02 17:26:44;;;;;;;12.67;6.20;;;11.30;46.60;;;;;;5022247;28;20724;-89
2021/11/02 17:29:14;;;;;;;8.00;5.40;;;11.50;45.60;;;;;;5038044;28;20185;-89
2021/11/02 17:31:45;;;;;;;8.07;5.13;;;11.50;45.10;;;;;;5039497;28;20178;-88
2021/11/02 17:34:23;;;;;;;9.70;5.07;;;11.50;44.30;;;;;;5040253;28;20177;-88
2021/11/02 17:37:05;;;;;;;8.60;4.90;;;11.50;45.10;;;;;;5039021;28;20177;-89
2021/11/02 17:39:35;;;;;;;7.70;5.10;;;11.40;46.10;;;;;;5038431;28;20300;-86
2021/11/02 17:42:01;;;;;;;6.47;4.27;;;11.10;55.50;;;;;;5039682;28;20181;-89
2021/11/02 17:44:28;;;;;;;8.70;4.90;;;11.00;60.10;;;;;;5040950;28;20649;-88
2021/11/02 17:46:54;;;;;;;6.57;4.63;;;10.70;65.70;;;;;;5040011;28;20218;-89
2021/11/02 17:49:25;;;;;;;7.60;5.13;;;10.50;71.60;;;;;;5049463;28;20197;-89
2021/11/02 17:51:53;;;;;;;7.00;5.07;;;10.60;73.10;;;;;;5050128;28;20174;-87
2021/11/02 17:54:19;;;;;;;9.23;5.40;;;10.80;69.90;;;;;;5051493;28;20174;-87
2021/11/02 17:56:45;;;;;;;9.60;4.63;;;10.80;68.30;;;;;;5046253;28;20209;-87
2021/11/02 17:59:13;;;;;;;7.87;6.03;;;10.60;72.20;;;;;;5044942;28;20193;-88
2021/11/02 18:01:42;;;;;;;8.70;5.77;;;10.60;76.30;;;;;;5040639;28;20280;-90
2021/11/02 18:04:12;;;;;;;8.60;5.80;;;10.40;78.90;;;;;;5043418;28;20320;-86
2021/11/02 18:07:08;;;;;;;8.27;5.47;;;10.40;81.00;;;;;;5040119;28;20217;-87
2021/11/02 18:09:34;;;;;;;7.27;5.17;;;10.40;82.10;;;;;;5045843;28;20177;-90
2021/11/02 18:12:32;;;;;;;8.13;5.07;;;10.40;83.70;;;;;;5040038;28;20269;-89
2021/11/02 18:14:59;;;;;;;8.17;5.37;;;10.60;81.10;;;;;;5038018;28;20184;-89
2021/11/02 18:17:33;;;;;;;10.40;5.87;;;10.70;77.80;;;;;;5041988;28;20174;-90
2021/11/02 18:20:02;;;;;;;9.10;5.50;;;10.70;75.70;;;;;;5044056;28;20182;-88
2021/11/02 18:22:30;;;;;;;11.07;6.17;;;10.60;80.40;;;;;;5044563;28;20192;-88
2021/11/02 18:24:57;;;;;;;7.87;5.67;;;10.60;79.80;;;;;;5050755;28;20229;-88
2021/11/02 18:27:23;;;;;;;9.90;5.77;;;10.40;82.60;;;;;;5056954;28;20253;-88
2021/11/02 18:29:51;;;;;;;8.00;5.80;;;10.30;87.00;;;;;;5055703;28;20212;-88
2021/11/02 18:32:27;;;;;;;12.03;6.47;;;10.10;90.00;;;;;;5054293;28;20261;-86
2021/11/02 18:34:55;;;;;;;11.60;6.30;;;10.10;91.00;;;;;;5052365;28;20255;-87
2021/11/02 18:37:22;;;;;;;8.83;6.23;;;10.20;91.30;;;;;;5050927;28;20208;-87
2021/11/02 18:39:48;;;;;;;10.50;5.53;;;10.30;90.50;;;;;;5055431;28;20201;-88
2021/11/02 18:42:16;;;;;;;8.40;5.80;;;10.40;89.90;;;;;;5053717;28;20174;-88